Time;durP1;ratioP1;P1;durP2;ratioP2;P2;SDS_P1;SDS_P2;PMS_P1;PMS_P2;Temp;Humidity;BMP_temperature;BMP_pressure;BME280_temperature;BME280_humidity;BME280_pressure;Samples;Min_cycle;Max_cycle;Signal;HPM_P1;HPM_P2
2022/11/02 00:02:12;;;;;;;11.32;1.80;;;14.20;99.90;;;;;;5119376;28;20367;-75
2022/11/02 00:04:37;;;;;;;9.35;1.50;;;14.10;99.90;;;;;;5118864;28;20061;-76
2022/11/02 00:07:03;;;;;;;10.80;1.33;;;14.00;99.90;;;;;;5152293;27;20040;-76
2022/11/02 00:09:29;;;;;;;11.73;1.85;;;14.20;99.90;;;;;;5118977;28;20035;-76
2022/11/02 00:11:55;;;;;;;12.80;2.10;;;14.10;99.90;;;;;;5118589;28;20039;-76
2022/11/02 00:14:20;;;;;;;9.82;1.67;;;14.10;99.90;;;;;;5152459;27;20069;-77
2022/11/02 00:16:46;;;;;;;17.08;2.65;;;14.10;99.90;;;;;;5152233;27;20047;-76
2022/11/02 00:19:12;;;;;;;9.38;1.70;;;14.00;99.90;;;;;;5118739;28;20035;-76
2022/11/02 00:21:37;;;;;;;9.95;2.03;;;13.80;99.90;;;;;;5117756;28;20047;-76
2022/11/02 00:24:05;;;;;;;9.90;1.65;;;13.80;99.90;;;;;;5118519;28;20386;-76
2022/11/02 00:26:33;;;;;;;13.70;1.88;;;13.80;99.90;;;;;;5117824;28;20328;-76
2022/11/02 00:28:58;;;;;;;12.55;1.70;;;13.80;99.90;;;;;;5118901;28;20036;-76
2022/11/02 00:31:24;;;;;;;10.18;1.75;;;13.70;99.90;;;;;;5117046;28;20097;-76
2022/11/02 00:33:50;;;;;;;10.20;1.58;;;13.70;99.90;;;;;;5117709;28;20046;-76
2022/11/02 00:36:16;;;;;;;8.65;1.55;;;13.50;99.90;;;;;;5118361;28;20047;-76
2022/11/02 00:38:42;;;;;;;7.95;1.70;;;13.40;99.90;;;;;;5117639;28;20032;-76
2022/11/02 00:41:08;;;;;;;10.75;1.48;;;13.50;99.90;;;;;;5118323;28;20044;-76
2022/11/02 00:43:33;;;;;;;8.57;1.58;;;13.40;99.90;;;;;;5118059;28;20050;-76
2022/11/02 00:46:00;;;;;;;8.25;1.58;;;13.30;99.90;;;;;;5118224;28;20122;-77
2022/11/02 00:48:25;;;;;;;3.53;1.33;;;13.10;99.90;;;;;;5117470;28;20108;-76
2022/11/02 00:50:51;;;;;;;7.68;1.48;;;13.00;99.90;;;;;;5118270;28;20417;-76
2022/11/02 00:53:17;;;;;;;4.53;1.40;;;13.10;99.90;;;;;;5117006;28;20067;-77
2022/11/02 00:55:43;;;;;;;5.88;1.45;;;13.00;99.90;;;;;;5118421;28;20341;-76
2022/11/02 00:58:09;;;;;;;8.95;1.50;;;13.00;99.90;;;;;;5117017;28;20040;-76
2022/11/02 01:00:34;;;;;;;3.85;1.33;;;12.90;99.90;;;;;;5118174;28;20043;-78
2022/11/02 01:03:01;;;;;;;5.97;1.40;;;13.00;99.90;;;;;;5118005;28;20371;-76
2022/11/02 01:05:27;;;;;;;6.45;1.38;;;13.00;99.90;;;;;;5117801;28;20123;-76
2022/11/02 01:07:52;;;;;;;4.97;1.52;;;13.00;99.90;;;;;;5117871;28;20063;-76
2022/11/02 01:10:18;;;;;;;6.75;1.65;;;12.80;99.90;;;;;;5117827;28;20432;-76
2022/11/02 01:12:44;;;;;;;5.05;1.00;;;12.80;99.90;;;;;;5117662;28;20062;-76
2022/11/02 01:15:10;;;;;;;7.03;1.20;;;12.60;99.90;;;;;;5117920;28;20416;-76
2022/11/02 01:17:36;;;;;;;3.70;1.42;;;12.60;99.90;;;;;;5117816;28;20339;-76
2022/11/02 01:20:02;;;;;;;5.15;1.42;;;12.70;99.90;;;;;;5117554;28;20488;-76
2022/11/02 01:22:27;;;;;;;4.35;1.73;;;12.50;99.90;;;;;;5117442;28;20040;-76
2022/11/02 01:24:54;;;;;;;2.67;1.25;;;12.60;99.90;;;;;;5117770;28;20371;-76
2022/11/02 01:27:20;;;;;;;4.53;1.20;;;12.50;99.90;;;;;;5117632;28;20432;-76
2022/11/02 01:29:45;;;;;;;6.03;1.40;;;12.60;99.90;;;;;;5117669;28;20114;-76
2022/11/02 01:32:11;;;;;;;5.13;1.20;;;12.70;99.90;;;;;;5117504;28;20417;-76
2022/11/02 01:34:37;;;;;;;3.28;1.15;;;12.60;99.90;;;;;;5117651;28;20328;-76
2022/11/02 01:37:02;;;;;;;6.72;1.30;;;12.50;99.90;;;;;;5117289;28;20045;-77
2022/11/02 01:39:28;;;;;;;5.57;1.20;;;12.50;99.90;;;;;;5117615;28;20040;-76
2022/11/02 01:41:54;;;;;;;5.70;1.10;;;12.60;99.90;;;;;;5116030;28;20040;-76
2022/11/02 01:44:30;;;;;;;2.70;1.10;;;12.70;99.90;;;;;;5117339;28;20314;-76
2022/11/02 01:47:06;;;;;;;3.22;1.20;;;12.80;99.90;;;;;;5117078;28;20429;-75
2022/11/02 01:49:35;;;;;;;3.95;1.33;;;12.70;99.90;;;;;;5117340;28;20088;-77
2022/11/02 01:52:08;;;;;;;3.03;1.10;;;12.60;99.90;;;;;;5117474;28;20088;-76
2022/11/02 01:54:44;;;;;;;4.60;1.40;;;12.70;99.90;;;;;;5099638;28;20359;-76
2022/11/02 01:57:13;;;;;;;1.70;1.27;;;12.70;99.90;;;;;;5117209;28;20440;-76
2022/11/02 01:59:46;;;;;;;3.60;1.20;;;12.60;99.90;;;;;;5117115;28;20367;-76
2022/11/02 02:02:18;;;;;;;4.82;1.40;;;12.60;99.90;;;;;;5098908;28;20047;-76
2022/11/02 02:04:48;;;;;;;1.73;1.20;;;12.60;99.90;;;;;;5150333;27;20451;-76
2022/11/02 02:07:14;;;;;;;3.53;1.40;;;12.60;99.90;;;;;;5116481;28;20108;-76
2022/11/02 02:09:40;;;;;;;11.27;1.80;;;12.70;99.90;;;;;;5117008;28;20421;-76
2022/11/02 02:12:06;;;;;;;7.93;1.52;;;12.70;99.90;;;;;;5116614;28;20093;-76
2022/11/02 02:14:33;;;;;;;4.85;1.45;;;12.70;99.90;;;;;;5116752;28;20035;-76
2022/11/02 02:17:13;;;;;;;2.95;1.70;;;12.60;99.90;;;;;;5115990;28;20054;-77
2022/11/02 02:20:03;;;;;;;7.63;2.00;;;12.60;99.90;;;;;;5116856;28;20043;-76
2022/11/02 02:23:01;;;;;;;5.05;1.88;;;12.70;99.90;;;;;;5116851;28;20048;-76
2022/11/02 02:26:01;;;;;;;8.77;2.28;;;12.50;99.90;;;;;;5116832;28;20474;-76
2022/11/02 02:28:35;;;;;;;10.30;2.50;;;12.30;99.90;;;;;;5116789;28;20313;-75
2022/11/02 02:31:19;;;;;;;7.78;2.47;;;12.40;99.90;;;;;;5116764;28;20432;-75
2022/11/02 02:34:13;;;;;;;6.45;2.33;;;12.40;99.90;;;;;;5116807;28;20314;-75
2022/11/02 02:36:50;;;;;;;10.32;2.70;;;12.50;99.90;;;;;;5116710;28;20092;-75
2022/11/02 02:39:27;;;;;;;12.20;3.35;;;12.70;99.90;;;;;;5116752;28;20075;-76
2022/11/02 02:42:18;;;;;;;8.88;2.88;;;12.80;99.90;;;;;;5116375;28;20089;-75
2022/11/02 02:45:00;;;;;;;11.45;2.65;;;12.90;99.90;;;;;;5116776;28;20397;-75
2022/11/02 02:47:30;;;;;;;12.13;3.00;;;13.10;99.90;;;;;;5115276;28;20050;-75
2022/11/02 02:50:13;;;;;;;15.85;3.50;;;13.00;99.90;;;;;;5149958;27;20425;-75
2022/11/02 02:52:41;;;;;;;13.57;2.67;;;13.00;99.90;;;;;;5116911;28;20031;-75
2022/11/02 02:55:09;;;;;;;12.23;2.75;;;13.10;99.90;;;;;;5120445;28;20447;-75
2022/11/02 02:57:36;;;;;;;12.43;3.05;;;12.90;99.90;;;;;;5120512;28;20039;-75
2022/11/02 03:00:03;;;;;;;8.25;2.60;;;13.00;99.90;;;;;;5120580;28;20044;-75
2022/11/02 03:02:32;;;;;;;9.02;2.10;;;13.00;99.90;;;;;;5120535;28;20399;-75
2022/11/02 03:04:58;;;;;;;11.38;2.15;;;13.00;99.90;;;;;;5120355;28;20036;-75
2022/11/02 03:07:33;;;;;;;7.75;1.65;;;13.00;99.90;;;;;;5102599;28;20316;-75
2022/11/02 03:10:15;;;;;;;7.20;1.50;;;12.90;99.90;;;;;;5120240;28;20447;-75
2022/11/02 03:12:56;;;;;;;7.13;1.50;;;12.90;99.90;;;;;;5153286;27;20039;-75
2022/11/02 03:15:29;;;;;;;10.70;1.38;;;12.80;99.90;;;;;;5120003;27;20096;-75
2022/11/02 03:18:16;;;;;;;2.75;1.30;;;12.70;99.90;;;;;;5120182;28;20039;-75
2022/11/02 03:20:54;;;;;;;6.40;1.30;;;12.50;99.90;;;;;;5119217;28;20048;-76
2022/11/02 03:23:44;;;;;;;3.05;0.98;;;12.50;99.90;;;;;;5119753;28;20074;-76
2022/11/02 03:26:25;;;;;;;5.82;1.05;;;12.60;99.90;;;;;;5119933;28;20039;-76
2022/11/02 03:29:01;;;;;;;6.57;1.17;;;12.60;99.90;;;;;;5120049;28;20067;-75
2022/11/02 03:31:42;;;;;;;7.57;1.20;;;12.50;99.90;;;;;;5119728;27;20075;-75
2022/11/02 03:34:27;;;;;;;5.43;0.90;;;12.60;99.90;;;;;;5120011;28;20348;-76
2022/11/02 03:37:10;;;;;;;6.55;1.08;;;12.50;99.90;;;;;;5118687;28;20089;-75
2022/11/02 03:39:47;;;;;;;5.97;1.30;;;12.50;99.90;;;;;;5119591;28;20047;-75
2022/11/02 03:42:22;;;;;;;6.05;1.30;;;12.50;99.90;;;;;;5152633;27;20040;-75
2022/11/02 03:44:54;;;;;;;7.25;1.40;;;12.40;99.90;;;;;;5119583;28;20043;-75
2022/11/02 03:47:21;;;;;;;4.63;1.25;;;12.50;99.90;;;;;;5119237;28;20485;-75
2022/11/02 03:49:49;;;;;;;6.13;1.00;;;12.60;99.90;;;;;;5119023;28;20042;-75
2022/11/02 03:52:25;;;;;;;5.82;1.13;;;12.50;99.90;;;;;;5152794;27;20040;-75
2022/11/02 03:54:56;;;;;;;7.85;1.67;;;12.30;99.90;;;;;;5152552;27;20421;-75
2022/11/02 03:57:27;;;;;;;10.50;1.30;;;12.40;99.90;;;;;;5119160;28;20451;-75
2022/11/02 04:00:04;;;;;;;6.72;1.30;;;12.40;99.90;;;;;;5119394;28;20047;-75
2022/11/02 04:02:33;;;;;;;11.55;1.85;;;12.30;99.90;;;;;;5119320;28;20332;-75
2022/11/02 04:04:59;;;;;;;8.10;1.40;;;12.40;99.90;;;;;;5118065;28;20079;-76
2022/11/02 04:08:19;;;;;;;8.98;1.40;;;12.20;99.90;;;;;;5118806;28;20078;-76
2022/11/02 04:10:14;;;;;;;5.25;0.82;;;12.40;99.90;;;;;;5119007;27;20420;-75
2022/11/02 04:15:24;;;;;;;9.43;1.42;;;12.20;99.90;;;;;;5118849;28;20058;-76
2022/11/02 04:20:39;;;;;;;11.48;1.80;;;12.10;99.90;;;;;;5098858;28;20445;-75
2022/11/02 04:25:54;;;;;;;8.73;1.20;;;11.90;99.90;;;;;;5118627;28;20131;-76
2022/11/02 04:28:20;;;;;;;8.27;1.30;;;12.00;99.90;;;;;;5118761;28;20044;-75
2022/11/02 04:30:46;;;;;;;10.40;1.33;;;12.10;99.90;;;;;;5118880;28;20417;-75
2022/11/02 04:35:59;;;;;;;15.40;1.83;;;12.20;99.90;;;;;;5118746;28;20112;-76
2022/11/02 04:38:40;;;;;;;8.52;1.33;;;12.20;99.90;;;;;;5118674;28;20036;-76
2022/11/02 04:44:01;;;;;;;13.60;1.80;;;12.30;99.90;;;;;;5117986;28;20122;-75
2022/11/02 04:46:30;;;;;;;10.73;1.50;;;12.30;99.90;;;;;;5118155;28;20472;-74
2022/11/02 04:48:56;;;;;;;13.18;2.45;;;12.10;99.90;;;;;;5117811;28;20055;-75
2022/11/02 04:51:23;;;;;;;11.10;1.58;;;12.20;99.90;;;;;;5118272;28;20032;-75
2022/11/02 04:53:50;;;;;;;7.90;1.50;;;12.30;99.90;;;;;;5118263;28;20039;-75
2022/11/02 04:56:16;;;;;;;11.30;1.35;;;12.10;99.90;;;;;;5118348;28;20168;-75
2022/11/02 04:58:42;;;;;;;12.50;1.58;;;12.20;99.90;;;;;;5118090;28;20336;-75
2022/11/02 05:01:12;;;;;;;12.00;1.75;;;12.20;99.90;;;;;;5117974;28;20047;-75
2022/11/02 05:03:38;;;;;;;9.98;2.00;;;12.30;99.90;;;;;;5117022;28;20047;-75
2022/11/02 05:06:04;;;;;;;13.13;1.90;;;12.40;99.90;;;;;;5117140;28;20032;-76
2022/11/02 05:08:30;;;;;;;11.20;2.10;;;12.40;99.90;;;;;;5117209;28;20114;-76
2022/11/02 05:10:57;;;;;;;10.57;1.85;;;12.40;99.90;;;;;;5117807;28;20489;-75
2022/11/02 05:13:24;;;;;;;8.20;1.50;;;12.30;99.90;;;;;;5117484;28;20037;-75
2022/11/02 05:15:50;;;;;;;11.10;1.92;;;12.30;99.90;;;;;;5099588;28;20040;-76
2022/11/02 05:18:16;;;;;;;13.38;2.10;;;12.20;99.90;;;;;;5117941;28;20043;-76
2022/11/02 05:20:42;;;;;;;9.27;2.05;;;12.20;99.90;;;;;;5117825;28;20375;-75
2022/11/02 05:23:07;;;;;;;10.07;1.95;;;12.30;99.90;;;;;;5117587;28;20417;-75
2022/11/02 05:25:33;;;;;;;10.65;3.22;;;12.30;99.90;;;;;;5099500;28;20126;-75
2022/11/02 05:27:59;;;;;;;11.10;2.20;;;12.10;99.90;;;;;;5117621;28;20054;-75
2022/11/02 05:30:25;;;;;;;26.08;2.80;;;12.10;99.90;;;;;;5116721;28;20027;-77
2022/11/02 05:32:55;;;;;;;11.68;2.63;;;12.10;99.90;;;;;;5117478;28;20046;-75
2022/11/02 05:35:21;;;;;;;13.45;3.00;;;12.10;99.90;;;;;;5117543;28;20135;-75
2022/11/02 05:37:46;;;;;;;14.38;2.53;;;12.10;99.90;;;;;;5117448;28;20102;-75
2022/11/02 05:40:12;;;;;;;9.68;2.38;;;12.00;99.90;;;;;;5117665;28;20413;-75
2022/11/02 05:42:38;;;;;;;12.38;2.55;;;12.10;99.90;;;;;;5116780;28;20048;-75
2022/11/02 05:45:04;;;;;;;10.20;2.78;;;12.10;99.90;;;;;;5117145;28;20054;-77
2022/11/02 05:47:33;;;;;;;11.70;3.55;;;12.20;99.90;;;;;;5116835;28;20083;-75
2022/11/02 05:49:58;;;;;;;10.30;2.63;;;12.30;99.90;;;;;;5116034;28;20044;-75
2022/11/02 05:52:24;;;;;;;14.38;2.92;;;12.20;99.90;;;;;;5117236;28;20109;-75
2022/11/02 05:54:50;;;;;;;8.23;2.72;;;12.30;99.90;;;;;;5117104;28;20047;-76
2022/11/02 05:57:16;;;;;;;18.38;3.65;;;12.20;99.90;;;;;;5117091;28;20055;-76
2022/11/02 05:59:41;;;;;;;13.80;2.83;;;12.20;99.90;;;;;;5116883;28;20039;-76
2022/11/02 06:02:07;;;;;;;16.17;3.60;;;12.30;99.90;;;;;;5116234;28;20074;-75
2022/11/02 06:04:33;;;;;;;12.10;2.63;;;12.30;99.90;;;;;;5150092;27;20043;-76
2022/11/02 06:06:58;;;;;;;14.02;3.10;;;12.40;99.90;;;;;;5117133;28;20370;-76
2022/11/02 06:09:24;;;;;;;18.52;3.00;;;12.40;99.90;;;;;;5116237;28;20357;-75
2022/11/02 06:11:50;;;;;;;11.90;3.17;;;12.30;99.90;;;;;;5116971;28;20443;-75
2022/11/02 06:14:15;;;;;;;17.00;2.95;;;12.20;99.90;;;;;;5116734;28;20039;-76
2022/11/02 06:16:41;;;;;;;16.85;2.70;;;12.20;99.90;;;;;;5115860;28;20050;-75
2022/11/02 06:19:06;;;;;;;20.45;3.30;;;12.10;99.90;;;;;;5117094;28;20113;-76
2022/11/02 06:21:32;;;;;;;15.48;2.67;;;12.10;99.90;;;;;;5116802;28;20036;-75
2022/11/02 06:23:58;;;;;;;17.33;3.15;;;12.20;99.90;;;;;;5116915;28;20035;-75
2022/11/02 06:26:23;;;;;;;15.82;2.83;;;12.20;99.90;;;;;;5116677;28;20088;-75
2022/11/02 06:28:49;;;;;;;19.95;3.00;;;12.20;99.90;;;;;;5119326;28;20152;-76
2022/11/02 06:31:16;;;;;;;13.02;2.90;;;12.30;99.90;;;;;;5119862;28;20344;-76
2022/11/02 06:33:43;;;;;;;14.43;2.67;;;12.30;99.90;;;;;;5119869;28;20031;-75
2022/11/02 06:36:09;;;;;;;10.85;2.42;;;12.30;99.90;;;;;;5120962;27;20073;-75
2022/11/02 06:38:35;;;;;;;17.15;3.00;;;12.30;99.90;;;;;;5119844;28;20036;-75
2022/11/02 06:41:04;;;;;;;13.18;2.28;;;12.30;99.90;;;;;;5120793;28;20039;-75
2022/11/02 06:43:30;;;;;;;12.10;2.63;;;12.30;99.90;;;;;;5120266;28;20108;-75
2022/11/02 06:45:57;;;;;;;17.58;2.97;;;12.20;99.90;;;;;;5120885;28;20032;-76
2022/11/02 06:48:24;;;;;;;19.05;3.95;;;12.10;99.90;;;;;;5120372;28;20051;-75
2022/11/02 06:50:49;;;;;;;15.98;3.35;;;12.00;99.90;;;;;;5120481;28;20067;-76
2022/11/02 06:53:15;;;;;;;13.68;2.92;;;12.20;99.90;;;;;;5120751;28;20039;-76
2022/11/02 06:55:41;;;;;;;17.77;3.10;;;12.20;99.90;;;;;;5120387;28;20104;-76
2022/11/02 06:58:06;;;;;;;21.80;3.72;;;12.20;99.90;;;;;;5120359;28;20088;-76
2022/11/02 07:00:32;;;;;;;18.65;2.90;;;12.30;99.90;;;;;;5120461;28;20047;-75
2022/11/02 07:03:03;;;;;;;18.38;3.17;;;12.10;99.90;;;;;;5119523;28;20317;-76
2022/11/02 07:05:29;;;;;;;13.73;3.42;;;12.10;99.90;;;;;;5120212;28;20040;-75
2022/11/02 07:07:55;;;;;;;18.15;3.88;;;12.10;99.90;;;;;;5119109;28;20042;-76
2022/11/02 07:10:21;;;;;;;15.13;3.08;;;12.10;99.90;;;;;;5120634;28;20332;-75
2022/11/02 07:12:46;;;;;;;16.98;3.30;;;12.10;99.90;;;;;;5119815;28;20039;-76
2022/11/02 07:15:12;;;;;;;20.63;3.30;;;12.10;99.90;;;;;;5120121;28;20112;-75
2022/11/02 07:17:39;;;;;;;15.23;3.13;;;12.10;99.90;;;;;;5118968;28;20118;-75
2022/11/02 07:20:05;;;;;;;15.50;3.83;;;12.20;99.90;;;;;;5120330;28;20044;-75
2022/11/02 07:22:31;;;;;;;18.45;3.50;;;12.30;99.90;;;;;;5119985;28;20043;-75
2022/11/02 07:24:57;;;;;;;18.38;4.00;;;12.30;99.90;;;;;;5120099;28;20054;-75
2022/11/02 07:27:22;;;;;;;25.17;4.18;;;12.30;99.90;;;;;;5119791;28;20043;-75
2022/11/02 07:29:48;;;;;;;14.38;3.08;;;12.30;99.90;;;;;;5119932;28;20036;-76
2022/11/02 07:32:14;;;;;;;23.20;3.55;;;12.20;99.90;;;;;;5119985;28;20039;-75
2022/11/02 07:34:39;;;;;;;14.93;2.80;;;12.20;99.90;;;;;;5119782;28;20046;-75
2022/11/02 07:37:05;;;;;;;18.65;3.20;;;12.20;99.90;;;;;;5119905;28;20123;-75
2022/11/02 07:39:31;;;;;;;22.17;2.90;;;12.20;99.90;;;;;;5117481;28;20188;-75
2022/11/02 07:41:56;;;;;;;15.60;2.53;;;12.30;99.90;;;;;;5119731;28;20047;-75
2022/11/02 07:44:22;;;;;;;13.45;3.05;;;12.20;99.90;;;;;;5118846;28;20040;-75
2022/11/02 07:46:48;;;;;;;13.13;2.08;;;12.20;99.90;;;;;;5119740;28;20093;-75
2022/11/02 07:49:13;;;;;;;14.60;1.98;;;12.10;99.90;;;;;;5118907;28;20471;-75
2022/11/02 07:51:39;;;;;;;8.48;1.45;;;12.10;99.90;;;;;;5119368;28;20043;-73
2022/11/02 07:54:05;;;;;;;8.90;1.50;;;11.80;99.90;;;;;;5119418;28;20039;-76
2022/11/02 07:56:30;;;;;;;10.27;1.42;;;11.60;99.90;;;;;;5119260;28;20421;-75
2022/11/02 07:58:56;;;;;;;11.63;1.45;;;11.60;99.90;;;;;;5119513;28;20088;-72
2022/11/02 08:01:22;;;;;;;7.88;1.20;;;11.50;99.90;;;;;;5119048;28;20043;-71
2022/11/02 08:03:48;;;;;;;16.48;1.75;;;11.60;99.90;;;;;;5119120;28;20040;-72
2022/11/02 08:06:13;;;;;;;10.25;1.73;;;11.70;99.90;;;;;;5119102;28;20096;-72
2022/11/02 08:08:39;;;;;;;10.85;1.13;;;11.70;99.90;;;;;;5118816;28;20363;-73
2022/11/02 08:11:06;;;;;;;7.20;1.10;;;11.70;99.90;;;;;;5118932;27;20420;-73
2022/11/02 08:13:33;;;;;;;9.93;1.45;;;11.70;99.90;;;;;;5118389;28;20035;-71
2022/11/02 08:15:59;;;;;;;10.90;1.50;;;11.70;99.90;;;;;;5119189;28;20390;-74
2022/11/02 08:18:26;;;;;;;9.93;1.52;;;11.70;99.90;;;;;;5119008;28;20129;-72
2022/11/02 08:20:58;;;;;;;9.25;1.50;;;11.90;99.90;;;;;;5119368;28;20088;-74
2022/11/02 08:23:25;;;;;;;13.38;1.35;;;12.00;99.90;;;;;;5118622;27;20429;-72
2022/11/02 08:25:52;;;;;;;11.25;1.95;;;12.00;99.90;;;;;;5118701;28;20120;-72
2022/11/02 08:28:24;;;;;;;8.73;1.52;;;12.20;99.90;;;;;;5117793;28;20294;-72
2022/11/02 08:30:50;;;;;;;18.42;2.08;;;12.20;99.90;;;;;;5118475;28;20476;-72
2022/11/02 08:33:18;;;;;;;12.15;1.80;;;12.30;99.90;;;;;;5118665;28;20120;-72
2022/11/02 08:35:45;;;;;;;12.13;1.80;;;12.30;99.90;;;;;;5118570;28;20035;-72
2022/11/02 08:38:11;;;;;;;10.40;1.65;;;12.20;99.90;;;;;;5118421;27;20058;-73
2022/11/02 08:40:37;;;;;;;11.98;1.40;;;12.20;99.90;;;;;;5118272;28;20040;-72
2022/11/02 08:43:11;;;;;;;13.88;1.60;;;12.20;99.90;;;;;;5118178;28;20058;-72
2022/11/02 08:45:38;;;;;;;11.38;1.20;;;12.10;99.90;;;;;;5118225;28;20044;-72
2022/11/02 08:48:06;;;;;;;12.85;1.80;;;12.20;99.90;;;;;;5116920;28;20059;-73
2022/11/02 08:50:31;;;;;;;10.57;2.05;;;12.30;99.90;;;;;;5117952;28;20069;-72
2022/11/02 08:52:57;;;;;;;9.52;1.58;;;12.30;99.90;;;;;;5117965;28;20039;-73
2022/11/02 08:55:23;;;;;;;11.27;1.50;;;12.40;99.90;;;;;;5118091;28;20097;-73
2022/11/02 08:57:54;;;;;;;14.82;2.10;;;12.40;99.90;;;;;;5116893;28;20039;-71
2022/11/02 09:00:22;;;;;;;8.98;1.50;;;12.40;99.90;;;;;;5117149;28;20071;-71
2022/11/02 09:02:59;;;;;;;8.63;1.58;;;12.50;99.90;;;;;;5117896;28;20059;-73
2022/11/02 09:05:26;;;;;;;14.73;2.08;;;12.40;99.90;;;;;;5151428;27;20079;-72
2022/11/02 09:08:00;;;;;;;9.82;1.70;;;12.40;99.90;;;;;;5151461;27;20100;-72
2022/11/02 09:10:28;;;;;;;9.45;1.48;;;12.40;99.90;;;;;;5117826;28;20066;-72
2022/11/02 09:12:54;;;;;;;9.52;1.40;;;12.50;99.90;;;;;;5116315;28;20051;-71
2022/11/02 09:15:20;;;;;;;13.32;1.88;;;12.50;99.90;;;;;;5151235;27;20051;-72
2022/11/02 09:17:47;;;;;;;11.20;1.77;;;12.50;99.90;;;;;;5117979;28;20036;-72
2022/11/02 09:20:15;;;;;;;8.95;1.13;;;12.60;99.90;;;;;;5116508;28;20054;-72
2022/11/02 09:22:40;;;;;;;9.57;1.20;;;12.60;99.90;;;;;;5116736;28;20063;-73
2022/11/02 09:25:07;;;;;;;14.20;1.60;;;12.60;99.90;;;;;;5116649;28;20089;-73
2022/11/02 09:27:32;;;;;;;6.78;1.50;;;12.70;99.90;;;;;;5117759;28;20036;-73
2022/11/02 09:29:58;;;;;;;10.07;1.70;;;12.80;99.90;;;;;;5151082;27;20123;-73
2022/11/02 09:32:24;;;;;;;12.57;1.80;;;12.70;99.90;;;;;;5117268;28;20070;-73
2022/11/02 09:34:50;;;;;;;13.32;1.63;;;12.70;99.90;;;;;;5099754;28;20046;-73
2022/11/02 09:37:16;;;;;;;9.15;1.25;;;12.80;99.90;;;;;;5099227;28;20072;-73
2022/11/02 09:39:42;;;;;;;13.35;2.58;;;12.90;99.90;;;;;;5117540;28;20070;-73
2022/11/02 09:42:41;;;;;;;13.60;1.65;;;13.00;99.90;;;;;;5117458;28;20044;-73
2022/11/02 09:45:13;;;;;;;8.07;1.70;;;13.00;99.90;;;;;;5116938;28;20039;-73
2022/11/02 09:47:49;;;;;;;11.45;1.70;;;12.90;99.90;;;;;;5117105;28;20042;-73
2022/11/02 09:50:22;;;;;;;11.18;1.48;;;13.00;99.90;;;;;;5117322;28;20043;-73
2022/11/02 09:53:01;;;;;;;10.93;1.55;;;13.00;99.90;;;;;;5117531;28;20036;-74
2022/11/02 09:55:34;;;;;;;11.60;1.40;;;13.00;99.90;;;;;;5117056;28;20071;-73
2022/11/02 09:58:06;;;;;;;16.70;2.30;;;12.90;99.90;;;;;;5115995;28;20043;-73
2022/11/02 10:00:37;;;;;;;13.05;1.52;;;13.10;99.90;;;;;;5117165;27;20105;-75
2022/11/02 10:03:27;;;;;;;12.43;1.85;;;13.20;99.90;;;;;;5111662;27;20058;-74
2022/11/02 10:06:09;;;;;;;12.93;1.40;;;13.40;99.90;;;;;;5117071;28;20039;-72
2022/11/02 10:08:56;;;;;;;12.88;1.65;;;13.50;99.90;;;;;;5130973;28;20043;-74
2022/11/02 10:11:25;;;;;;;14.93;1.70;;;13.50;99.90;;;;;;5129083;27;20038;-75
2022/11/02 10:13:57;;;;;;;14.13;1.70;;;13.50;99.70;;;;;;5135858;28;20051;-75
2022/11/02 10:16:37;;;;;;;11.50;1.48;;;13.40;99.90;;;;;;5135330;27;20050;-75
2022/11/02 10:19:09;;;;;;;17.30;1.90;;;13.40;99.40;;;;;;5137394;27;20043;-76
2022/11/02 10:21:38;;;;;;;12.65;1.45;;;13.40;99.80;;;;;;5136342;28;20125;-75
2022/11/02 10:24:13;;;;;;;8.85;1.65;;;13.60;99.90;;;;;;5136294;28;20043;-75
2022/11/02 10:26:42;;;;;;;11.43;1.45;;;13.60;99.90;;;;;;5137250;27;20046;-75
2022/11/02 10:29:38;;;;;;;14.02;2.05;;;13.80;99.80;;;;;;5136554;28;20047;-75
2022/11/02 10:32:04;;;;;;;14.35;1.42;;;13.90;99.30;;;;;;5137595;27;20043;-73
2022/11/02 10:34:32;;;;;;;8.77;1.20;;;14.00;99.10;;;;;;5137215;27;20049;-73
2022/11/02 10:37:35;;;;;;;11.38;1.42;;;14.00;98.80;;;;;;5136203;28;20039;-73
2022/11/02 10:40:22;;;;;;;10.55;1.45;;;14.00;98.90;;;;;;5136199;28;20043;-73
2022/11/02 10:43:01;;;;;;;10.75;1.92;;;14.00;98.70;;;;;;5135686;27;20085;-73
2022/11/02 10:45:40;;;;;;;16.25;1.55;;;14.00;99.00;;;;;;5137360;27;20043;-72
2022/11/02 10:48:27;;;;;;;11.60;1.52;;;14.10;98.50;;;;;;5136914;27;20436;-72
2022/11/02 10:51:09;;;;;;;10.45;1.42;;;14.10;98.50;;;;;;5137221;27;20047;-73
2022/11/02 10:53:46;;;;;;;8.95;1.50;;;14.20;98.10;;;;;;5136380;27;20332;-73
2022/11/02 10:56:21;;;;;;;8.88;0.95;;;14.20;98.40;;;;;;5137106;27;20110;-73
2022/11/02 10:59:02;;;;;;;13.80;1.50;;;14.10;98.10;;;;;;5136308;28;20057;-72
2022/11/02 11:01:30;;;;;;;10.13;1.13;;;14.00;97.50;;;;;;5136076;28;20043;-73
2022/11/02 11:04:04;;;;;;;11.65;1.33;;;13.80;97.50;;;;;;5137018;27;20339;-74
2022/11/02 11:06:42;;;;;;;8.30;1.30;;;13.90;97.80;;;;;;5136908;27;20047;-74
2022/11/02 11:09:31;;;;;;;12.60;1.42;;;13.90;97.90;;;;;;5118622;28;20039;-74
2022/11/02 11:12:04;;;;;;;8.15;1.08;;;14.00;98.10;;;;;;5137307;27;20289;-72
2022/11/02 11:14:43;;;;;;;15.35;1.63;;;13.90;97.90;;;;;;5138159;27;20043;-75
2022/11/02 11:17:18;;;;;;;19.17;2.20;;;13.70;98.10;;;;;;5140896;27;20085;-72
2022/11/02 11:19:51;;;;;;;13.03;1.77;;;13.80;98.40;;;;;;5140653;27;20451;-72
2022/11/02 11:22:28;;;;;;;13.65;1.45;;;14.00;98.20;;;;;;5141082;27;20046;-71
2022/11/02 11:25:24;;;;;;;9.80;1.30;;;14.00;98.10;;;;;;5122374;27;20046;-71
2022/11/02 11:27:53;;;;;;;10.80;1.33;;;14.00;98.30;;;;;;5122250;27;20047;-72
2022/11/02 11:30:36;;;;;;;11.38;1.10;;;14.10;98.30;;;;;;5140515;27;20114;-72
2022/11/02 11:33:05;;;;;;;11.55;2.13;;;14.10;98.50;;;;;;5140507;27;20027;-72
2022/11/02 11:35:33;;;;;;;17.73;1.50;;;13.80;98.20;;;;;;5140201;27;20420;-70
2022/11/02 11:38:07;;;;;;;15.18;1.85;;;13.90;98.40;;;;;;5139281;27;20038;-73
2022/11/02 11:40:38;;;;;;;13.80;1.40;;;13.90;98.00;;;;;;5126558;27;20332;-71
2022/11/02 11:43:11;;;;;;;11.15;1.20;;;13.70;98.40;;;;;;5127401;27;20363;-71
2022/11/02 11:45:37;;;;;;;12.45;1.15;;;13.60;98.50;;;;;;5119201;28;20490;-75
2022/11/02 11:48:12;;;;;;;14.43;1.40;;;13.50;98.00;;;;;;5131046;27;20056;-72
2022/11/02 11:50:46;;;;;;;8.63;1.17;;;13.60;97.90;;;;;;5116736;28;20426;-76
2022/11/02 11:53:11;;;;;;;9.55;1.30;;;14.00;97.70;;;;;;5117444;28;20122;-72
2022/11/02 11:55:56;;;;;;;10.98;1.23;;;14.30;96.90;;;;;;5118597;28;20134;-71
2022/11/02 11:58:30;;;;;;;6.13;1.08;;;14.50;96.30;;;;;;5118570;28;20055;-72
2022/11/02 12:01:11;;;;;;;9.60;0.93;;;14.60;96.00;;;;;;5119526;28;20051;-71
2022/11/02 12:03:56;;;;;;;6.10;0.68;;;14.70;95.90;;;;;;5118315;28;20047;-71
2022/11/02 12:06:50;;;;;;;11.18;1.13;;;14.80;96.00;;;;;;5119355;27;20425;-71
2022/11/02 12:09:21;;;;;;;11.35;1.55;;;14.80;96.00;;;;;;5119090;28;20039;-71
2022/11/02 12:12:03;;;;;;;8.13;0.70;;;14.90;96.10;;;;;;5119138;28;20069;-71
2022/11/02 12:15:10;;;;;;;12.05;1.10;;;15.10;96.20;;;;;;5118931;28;20086;-71
2022/11/02 12:18:05;;;;;;;8.95;0.80;;;15.10;95.90;;;;;;5118872;28;20173;-71
2022/11/02 12:20:52;;;;;;;6.90;1.10;;;15.00;95.90;;;;;;5119145;28;20438;-78
2022/11/02 12:23:36;;;;;;;;;;;15.00;95.80;;;;;;5101519;28;20487;-72
2022/11/02 12:26:12;;;;;;;7.65;0.93;;;15.10;95.50;;;;;;5118116;28;19919;-72
2022/11/02 12:29:00;;;;;;;;;;;15.30;95.70;;;;;;5119514;28;20036;-72
2022/11/02 12:31:37;;;;;;;8.32;0.98;;;15.60;95.60;;;;;;5115422;28;19960;-72
2022/11/02 12:34:24;;;;;;;10.38;1.15;;;15.70;95.70;;;;;;5118538;28;20123;-72
2022/11/02 12:36:55;;;;;;;10.95;0.95;;;16.00;95.90;;;;;;5118902;28;20075;-72
2022/11/02 12:39:52;;;;;;;12.32;1.48;;;16.30;95.40;;;;;;5118685;28;20118;-73
2022/11/02 12:42:32;;;;;;;6.03;0.87;;;16.60;95.90;;;;;;5117757;28;20071;-72
2022/11/02 12:45:48;;;;;;;7.82;0.80;;;16.40;94.90;;;;;;5117403;28;20496;-72
2022/11/02 12:48:33;;;;;;;8.48;1.30;;;16.70;95.20;;;;;;5035579;28;20053;-74
2022/11/02 12:51:08;;;;;;;8.95;1.10;;;16.80;95.00;;;;;;5118686;28;20039;-73
2022/11/02 12:53:39;;;;;;;10.93;1.30;;;16.00;94.90;;;;;;5117485;28;20047;-72
2022/11/02 12:56:10;;;;;;;14.43;2.90;;;15.80;95.30;;;;;;5117375;28;20440;-72
2022/11/02 12:58:39;;;;;;;8.68;0.80;;;16.30;95.60;;;;;;5118233;28;20041;-78
2022/11/02 13:01:23;;;;;;;8.07;0.60;;;15.50;95.20;;;;;;5117232;28;20429;-76
2022/11/02 13:04:22;;;;;;;5.20;0.80;;;15.10;95.90;;;;;;5117840;28;20443;-72
2022/11/02 13:06:51;;;;;;;11.85;1.08;;;15.30;95.80;;;;;;5117970;28;20040;-72
2022/11/02 13:09:38;;;;;;;10.43;1.45;;;15.90;95.70;;;;;;5117933;28;20528;-72
2022/11/02 13:12:11;;;;;;;10.18;1.35;;;16.10;95.50;;;;;;5117787;28;20075;-72
2022/11/02 13:14:48;;;;;;;8.10;1.42;;;16.40;95.40;;;;;;5117558;28;20043;-72
2022/11/02 13:17:27;;;;;;;12.88;1.30;;;16.80;95.10;;;;;;5117807;28;20507;-72